Time;durP1;ratioP1;P1;durP2;ratioP2;P2;SDS_P1;SDS_P2;PMS_P1;PMS_P2;Temp;Humidity;BMP_temperature;BMP_pressure;BME280_temperature;BME280_humidity;BME280_pressure;Samples;Min_cycle;Max_cycle;Signal;HPM_P1;HPM_P2
2021/10/11 00:00:06;;;;;;;;;;;;;;;;;;1011238;29;918;-18
2021/10/11 00:00:42;;;;;;;;;;;;;;;;;;1011378;29;1128;-19
2021/10/11 00:01:12;;;;;;;;;;;;;;;;;;1013052;29;907;-18
2021/10/11 00:01:43;;;;;;;;;;;;;;;;;;1019275;29;917;-18
2021/10/11 00:02:13;;;;;;;;;;;;;;;;;;1018082;29;1321;-18
2021/10/11 00:02:44;;;;;;;;;;;;;;;;;;1015973;29;1173;-18
2021/10/11 00:03:14;;;;;;;;;;;;;;;;;;1018797;29;1013;-19
2021/10/11 00:03:45;;;;;;;;;;;;;;;;;;1015173;29;1069;-19
2021/10/11 00:04:15;;;;;;;;;;;;;;;;;;1011204;29;1084;-19
2021/10/11 00:04:46;;;;;;;;;;;;;;;;;;1010719;29;1919;-19
2021/10/11 00:05:16;;;;;;;;;;;;;;;;;;1007317;29;1388;-18
2021/10/11 00:05:46;;;;;;;;;;;;;;;;;;1015317;29;973;-19
2021/10/11 00:06:17;;;;;;;;;;;;;;;;;;1018821;29;1180;-19
2021/10/11 00:06:48;;;;;;;;;;;;;;;;;;1019162;29;985;-19
2021/10/11 00:07:18;;;;;;;;;;;;;;;;;;1018377;29;1852;-19
2021/10/11 00:07:48;;;;;;;;;;;;;;;;;;1019021;29;1033;-19
2021/10/11 00:08:19;;;;;;;;;;;;;;;;;;1015925;29;872;-19
2021/10/11 00:08:49;;;;;;;;;;;;;;;;;;1022765;28;1043;-18
2021/10/11 00:09:19;;;;;;;;;;;;;;;;;;1023136;28;1040;-18
2021/10/11 00:09:50;;;;;;;;;;;;;;;;;;1023122;28;1051;-19
2021/10/11 00:10:20;;;;;;;;;;;;;;;;;;1022772;28;1096;-19
2021/10/11 00:10:52;;;;;;;;;;;;;;;;;;1016025;28;788;-19
2021/10/11 00:11:22;;;;;;;;;;;;;;;;;;1015665;29;1592;-18
2021/10/11 00:11:52;;;;;;;;;;;;;;;;;;1022911;28;1112;-18
2021/10/11 00:12:24;;;;;;;;;;;;;;;;;;1023187;28;1015;-19
2021/10/11 00:12:55;;;;;;;;;;;;;;;;;;1018856;29;1271;-18
2021/10/11 00:13:25;;;;;;;;;;;;;;;;;;1018719;29;969;-18
2021/10/11 00:13:56;;;;;;;;;;;;;;;;;;1003308;29;1583;-19
2021/10/11 00:14:27;;;;;;;;;;;;;;;;;;1011068;29;1125;-18
2021/10/11 00:14:57;;;;;;;;;;;;;;;;;;1011239;29;1142;-18
2021/10/11 00:15:28;;;;;;;;;;;;;;;;;;1010943;29;1400;-18
2021/10/11 00:15:58;;;;;;;;;;;;;;;;;;1015188;29;1018;-18
2021/10/11 00:16:28;;;;;;;;;;;;;;;;;;1019259;29;1158;-18
2021/10/11 00:16:59;;;;;;;;;;;;;;;;;;1019601;29;922;-18
2021/10/11 00:17:29;;;;;;;;;;;;;;;;;;1015553;29;977;-18
2021/10/11 00:18:00;;;;;;;;;;;;;;;;;;1014933;29;1770;-18
2021/10/11 00:18:30;;;;;;;;;;;;;;;;;;1015673;29;1069;-18
2021/10/11 00:19:02;;;;;;;;;;;;;;;;;;1015422;29;1062;-18
2021/10/11 00:19:35;;;;;;;;;;;;;;;;;;1015442;29;1355;-18
2021/10/11 00:20:07;;;;;;;;;;;;;;;;;;1011260;29;986;-18
2021/10/11 00:20:37;;;;;;;;;;;;;;;;;;1011349;29;1148;-18
2021/10/11 00:21:07;;;;;;;;;;;;;;;;;;1010858;29;1378;-18
2021/10/11 00:21:38;;;;;;;;;;;;;;;;;;1011160;29;1452;-18
2021/10/11 00:22:09;;;;;;;;;;;;;;;;;;1015072;29;1115;-18
2021/10/11 00:22:40;;;;;;;;;;;;;;;;;;1015120;29;1029;-18
2021/10/11 00:23:11;;;;;;;;;;;;;;;;;;1015086;29;1991;-18
2021/10/11 00:23:42;;;;;;;;;;;;;;;;;;1007043;29;1049;-18
2021/10/11 00:24:13;;;;;;;;;;;;;;;;;;1007138;29;903;-18
2021/10/11 00:24:44;;;;;;;;;;;;;;;;;;1006833;29;1992;-18
2021/10/11 00:25:14;;;;;;;;;;;;;;;;;;1007359;29;1204;-18
2021/10/11 00:25:45;;;;;;;;;;;;;;;;;;1011120;29;1489;-17
2021/10/11 00:26:15;;;;;;;;;;;;;;;;;;1006689;29;1176;-19
2021/10/11 00:26:46;;;;;;;;;;;;;;;;;;1007422;29;1140;-17
2021/10/11 00:27:17;;;;;;;;;;;;;;;;;;1003011;29;1442;-18
2021/10/11 00:27:47;;;;;;;;;;;;;;;;;;1003506;29;1038;-18
2021/10/11 00:28:17;;;;;;;;;;;;;;;;;;1015113;29;2560;-18
2021/10/11 00:28:48;;;;;;;;;;;;;;;;;;1015168;29;1544;-18
2021/10/11 00:29:18;;;;;;;;;;;;;;;;;;1014888;29;1159;-18
2021/10/11 00:29:49;;;;;;;;;;;;;;;;;;1014900;29;1403;-18
2021/10/11 00:30:19;;;;;;;;;;;;;;;;;;1014723;29;1421;-18
2021/10/11 00:30:50;;;;;;;;;;;;;;;;;;1015153;29;1511;-17
2021/10/11 00:31:20;;;;;;;;;;;;;;;;;;1014955;29;1332;-18
2021/10/11 00:31:50;;;;;;;;;;;;;;;;;;1015155;29;1029;-18
2021/10/11 00:32:21;;;;;;;;;;;;;;;;;;1014935;29;1338;-18
2021/10/11 00:32:51;;;;;;;;;;;;;;;;;;1015748;29;1054;-18
2021/10/11 00:33:22;;;;;;;;;;;;;;;;;;1014974;29;1113;-18
2021/10/11 00:33:52;;;;;;;;;;;;;;;;;;1014616;29;1392;-18
2021/10/11 00:34:22;;;;;;;;;;;;;;;;;;1014855;29;1026;-19
2021/10/11 00:34:53;;;;;;;;;;;;;;;;;;1015287;29;1429;-18
2021/10/11 00:35:23;;;;;;;;;;;;;;;;;;1015221;29;1302;-18
2021/10/11 00:35:53;;;;;;;;;;;;;;;;;;1015793;29;1225;-18
2021/10/11 00:36:25;;;;;;;;;;;;;;;;;;1018439;29;1507;-18
2021/10/11 00:36:55;;;;;;;;;;;;;;;;;;1018547;29;1248;-18
2021/10/11 00:37:25;;;;;;;;;;;;;;;;;;1018963;29;1170;-18
2021/10/11 00:37:56;;;;;;;;;;;;;;;;;;1014678;29;1099;-18
2021/10/11 00:38:27;;;;;;;;;;;;;;;;;;1014798;29;3838;-18
2021/10/11 00:38:57;;;;;;;;;;;;;;;;;;1014906;29;1521;-18
2021/10/11 00:39:28;;;;;;;;;;;;;;;;;;1014947;29;998;-18
2021/10/11 00:39:58;;;;;;;;;;;;;;;;;;1010852;29;1130;-19
2021/10/11 00:40:29;;;;;;;;;;;;;;;;;;1006875;29;1294;-18
2021/10/11 00:41:00;;;;;;;;;;;;;;;;;;1006924;29;1403;-18
2021/10/11 00:41:31;;;;;;;;;;;;;;;;;;1007077;29;1024;-18
2021/10/11 00:42:02;;;;;;;;;;;;;;;;;;1006572;29;1703;-18
2021/10/11 00:42:33;;;;;;;;;;;;;;;;;;1010862;29;1371;-18
2021/10/11 00:43:03;;;;;;;;;;;;;;;;;;1006621;29;1526;-18
2021/10/11 00:43:33;;;;;;;;;;;;;;;;;;1011166;29;1203;-18
2021/10/11 00:44:04;;;;;;;;;;;;;;;;;;1014748;29;1073;-18
2021/10/11 00:44:35;;;;;;;;;;;;;;;;;;1015007;29;1039;-18
2021/10/11 00:45:06;;;;;;;;;;;;;;;;;;1014916;29;1902;-18
2021/10/11 00:45:36;;;;;;;;;;;;;;;;;;1014982;29;1317;-18
2021/10/11 00:46:07;;;;;;;;;;;;;;;;;;1015512;29;1016;-18
2021/10/11 00:46:37;;;;;;;;;;;;;;;;;;1015897;29;1284;-18
2021/10/11 00:47:08;;;;;;;;;;;;;;;;;;1015579;29;967;-18
2021/10/11 00:47:38;;;;;;;;;;;;;;;;;;1015708;29;816;-18
2021/10/11 00:48:08;;;;;;;;;;;;;;;;;;1015610;29;1099;-18
2021/10/11 00:48:39;;;;;;;;;;;;;;;;;;1015733;29;1250;-18
2021/10/11 00:49:09;;;;;;;;;;;;;;;;;;1015626;29;902;-18
2021/10/11 00:49:40;;;;;;;;;;;;;;;;;;1015628;29;1569;-18
2021/10/11 00:50:10;;;;;;;;;;;;;;;;;;1014791;29;1109;-18
2021/10/11 00:50:41;;;;;;;;;;;;;;;;;;1014935;29;1139;-18
2021/10/11 00:51:11;;;;;;;;;;;;;;;;;;1014946;29;1113;-18
2021/10/11 00:51:42;;;;;;;;;;;;;;;;;;1015042;29;1117;-18
2021/10/11 00:52:13;;;;;;;;;;;;;;;;;;1015485;29;1410;-18
2021/10/11 00:52:44;;;;;;;;;;;;;;;;;;1015554;29;1210;-18
2021/10/11 00:53:15;;;;;;;;;;;;;;;;;;1015533;29;1018;-18
2021/10/11 00:53:46;;;;;;;;;;;;;;;;;;1015735;29;965;-18
2021/10/11 00:54:17;;;;;;;;;;;;;;;;;;1018866;29;1086;-18
2021/10/11 00:54:48;;;;;;;;;;;;;;;;;;1015073;29;1045;-18
2021/10/11 00:55:18;;;;;;;;;;;;;;;;;;1014925;29;1020;-18
2021/10/11 00:55:49;;;;;;;;;;;;;;;;;;1015265;29;930;-18
2021/10/11 00:56:20;;;;;;;;;;;;;;;;;;1010944;29;1048;-18
2021/10/11 00:56:50;;;;;;;;;;;;;;;;;;1015101;29;1020;-17
2021/10/11 00:57:21;;;;;;;;;;;;;;;;;;1014986;29;1095;-19
2021/10/11 00:57:51;;;;;;;;;;;;;;;;;;1014979;29;954;-18
2021/10/11 00:58:23;;;;;;;;;;;;;;;;;;1018972;29;1102;-18
2021/10/11 00:58:53;;;;;;;;;;;;;;;;;;1018607;29;1382;-18
2021/10/11 00:59:24;;;;;;;;;;;;;;;;;;1010761;29;1246;-18
2021/10/11 00:59:54;;;;;;;;;;;;;;;;;;1011058;29;1096;-18
2021/10/11 01:00:24;;;;;;;;;;;;;;;;;;1007103;29;1016;-18
2021/10/11 01:00:55;;;;;;;;;;;;;;;;;;1007151;29;963;-18
2021/10/11 01:01:25;;;;;;;;;;;;;;;;;;1015105;29;906;-18
2021/10/11 01:01:56;;;;;;;;;;;;;;;;;;1010733;29;924;-18
2021/10/11 01:02:26;;;;;;;;;;;;;;;;;;1011121;29;1342;-18
2021/10/11 01:02:57;;;;;;;;;;;;;;;;;;1010881;29;1118;-18
2021/10/11 01:03:27;;;;;;;;;;;;;;;;;;1010850;29;1136;-18
2021/10/11 01:03:59;;;;;;;;;;;;;;;;;;1010765;29;998;-18
2021/10/11 01:04:29;;;;;;;;;;;;;;;;;;1011254;29;989;-18
2021/10/11 01:05:00;;;;;;;;;;;;;;;;;;1015413;29;1915;-18
2021/10/11 01:05:30;;;;;;;;;;;;;;;;;;1015678;29;1986;-18
2021/10/11 01:06:00;;;;;;;;;;;;;;;;;;1015260;29;1029;-18
2021/10/11 01:06:31;;;;;;;;;;;;;;;;;;1015415;29;1178;-18
2021/10/11 01:07:01;;;;;;;;;;;;;;;;;;1014734;29;1479;-18
2021/10/11 01:07:32;;;;;;;;;;;;;;;;;;1015424;29;1255;-18
2021/10/11 01:08:03;;;;;;;;;;;;;;;;;;1015454;29;1005;-23
2021/10/11 01:08:33;;;;;;;;;;;;;;;;;;1014814;29;1518;-18
2021/10/11 01:09:04;;;;;;;;;;;;;;;;;;1015451;29;1041;-18
2021/10/11 01:09:35;;;;;;;;;;;;;;;;;;1018643;29;1330;-18
2021/10/11 01:10:06;;;;;;;;;;;;;;;;;;1018791;29;996;-18
2021/10/11 01:10:37;;;;;;;;;;;;;;;;;;1022775;28;971;-18
2021/10/11 01:11:07;;;;;;;;;;;;;;;;;;1022278;28;1014;-18
2021/10/11 01:11:38;;;;;;;;;;;;;;;;;;1010969;29;908;-18
2021/10/11 01:12:08;;;;;;;;;;;;;;;;;;1010773;29;1427;-18
2021/10/11 01:12:38;;;;;;;;;;;;;;;;;;1015316;29;1146;-18
2021/10/11 01:13:09;;;;;;;;;;;;;;;;;;1014746;29;1228;-18
2021/10/11 01:13:39;;;;;;;;;;;;;;;;;;1014901;29;1013;-18
2021/10/11 01:14:10;;;;;;;;;;;;;;;;;;1014462;29;1215;-18
2021/10/11 01:14:41;;;;;;;;;;;;;;;;;;1015027;29;879;-18
2021/10/11 01:15:11;;;;;;;;;;;;;;;;;;1014622;29;1148;-18
2021/10/11 01:15:42;;;;;;;;;;;;;;;;;;1014925;29;1622;-18
2021/10/11 01:16:12;;;;;;;;;;;;;;;;;;1014268;29;1425;-18
2021/10/11 01:16:43;;;;;;;;;;;;;;;;;;1014618;29;1191;-18
2021/10/11 01:17:15;;;;;;;;;;;;;;;;;;1018691;29;1152;-18
2021/10/11 01:17:45;;;;;;;;;;;;;;;;;;1017794;29;1362;-18
2021/10/11 01:18:15;;;;;;;;;;;;;;;;;;1010890;29;1206;-18
2021/10/11 01:18:46;;;;;;;;;;;;;;;;;;1011026;29;1290;-18
2021/10/11 01:19:16;;;;;;;;;;;;;;;;;;1015536;29;954;-18
2021/10/11 01:19:50;;;;;;;;;;;;;;;;;;1015687;29;923;-18
2021/10/11 01:20:21;;;;;;;;;;;;;;;;;;1015561;29;776;-18
2021/10/11 01:20:52;;;;;;;;;;;;;;;;;;1015422;29;1025;-18
2021/10/11 01:21:23;;;;;;;;;;;;;;;;;;1014760;29;1402;-20
2021/10/11 01:21:53;;;;;;;;;;;;;;;;;;1014260;29;1101;-18
2021/10/11 01:22:34;;;;;;;;;;;;;;;;;;1010892;29;1050;-18
2021/10/11 01:23:05;;;;;;;;;;;;;;;;;;1010909;29;967;-18
2021/10/11 01:23:35;;;;;;;;;;;;;;;;;;1010959;29;1117;-18
2021/10/11 01:24:06;;;;;;;;;;;;;;;;;;1012344;29;1353;-18
2021/10/11 01:24:36;;;;;;;;;;;;;;;;;;1006279;29;2696;-18
2021/10/11 01:25:08;;;;;;;;;;;;;;;;;;1006832;29;1998;-18
2021/10/11 01:25:38;;;;;;;;;;;;;;;;;;1006817;29;1099;-18
2021/10/11 01:26:09;;;;;;;;;;;;;;;;;;1003566;29;1135;-18
2021/10/11 01:26:40;;;;;;;;;;;;;;;;;;1014924;29;961;-18
2021/10/11 01:27:10;;;;;;;;;;;;;;;;;;1014735;29;1078;-18
2021/10/11 01:27:42;;;;;;;;;;;;;;;;;;1014836;29;948;-18
2021/10/11 01:28:13;;;;;;;;;;;;;;;;;;1017744;29;1396;-18
2021/10/11 01:28:43;;;;;;;;;;;;;;;;;;1018565;29;1315;-18
2021/10/11 01:29:15;;;;;;;;;;;;;;;;;;1014494;29;1042;-18
2021/10/11 01:29:45;;;;;;;;;;;;;;;;;;1010308;29;1321;-18
2021/10/11 01:30:18;;;;;;;;;;;;;;;;;;1006685;29;893;-18
2021/10/11 01:30:49;;;;;;;;;;;;;;;;;;1007399;29;1012;-18
2021/10/11 01:31:19;;;;;;;;;;;;;;;;;;1011483;29;1135;-18
2021/10/11 01:31:50;;;;;;;;;;;;;;;;;;1010846;29;1021;-18
2021/10/11 01:32:21;;;;;;;;;;;;;;;;;;1011001;29;1102;-18
2021/10/11 01:32:51;;;;;;;;;;;;;;;;;;1010895;29;1057;-18
2021/10/11 01:33:22;;;;;;;;;;;;;;;;;;1006808;29;1662;-18
2021/10/11 01:33:53;;;;;;;;;;;;;;;;;;1006823;29;1125;-18
2021/10/11 01:34:23;;;;;;;;;;;;;;;;;;1007048;29;1088;-18
2021/10/11 01:34:54;;;;;;;;;;;;;;;;;;998907;29;1336;-18
2021/10/11 01:35:24;;;;;;;;;;;;;;;;;;1003139;29;1102;-18
2021/10/11 01:35:54;;;;;;;;;;;;;;;;;;1006996;29;1006;-18
2021/10/11 01:36:25;;;;;;;;;;;;;;;;;;1010355;29;1620;-18
2021/10/11 01:36:56;;;;;;;;;;;;;;;;;;1018521;29;1148;-18
2021/10/11 01:37:26;;;;;;;;;;;;;;;;;;1018163;29;1094;-18
2021/10/11 01:37:56;;;;;;;;;;;;;;;;;;1018570;28;1374;-18
2021/10/11 01:38:26;;;;;;;;;;;;;;;;;;1018764;29;3620;-19
2021/10/11 01:38:58;;;;;;;;;;;;;;;;;;1015522;29;894;-18
2021/10/11 01:39:29;;;;;;;;;;;;;;;;;;1015713;29;1107;-18
2021/10/11 01:39:59;;;;;;;;;;;;;;;;;;1014394;29;1427;-18
2021/10/11 01:40:30;;;;;;;;;;;;;;;;;;1014922;29;1017;-18
2021/10/11 01:41:00;;;;;;;;;;;;;;;;;;1014814;29;1216;-18
2021/10/11 01:41:30;;;;;;;;;;;;;;;;;;1014270;29;1373;-18
2021/10/11 01:42:01;;;;;;;;;;;;;;;;;;1015358;29;1078;-18
2021/10/11 01:42:32;;;;;;;;;;;;;;;;;;1014985;29;922;-18
2021/10/11 01:43:03;;;;;;;;;;;;;;;;;;1014112;29;1366;-18
2021/10/11 01:43:33;;;;;;;;;;;;;;;;;;1014885;29;1016;-19
2021/10/11 01:44:03;;;;;;;;;;;;;;;;;;1014708;29;1142;-18
2021/10/11 01:44:34;;;;;;;;;;;;;;;;;;1014907;29;852;-18
2021/10/11 01:45:06;;;;;;;;;;;;;;;;;;1015625;29;1974;-18
2021/10/11 01:45:36;;;;;;;;;;;;;;;;;;1017882;29;1486;-18
2021/10/11 01:46:06;;;;;;;;;;;;;;;;;;1019018;29;1197;-18
2021/10/11 01:46:37;;;;;;;;;;;;;;;;;;1018892;29;1508;-19
2021/10/11 01:47:07;;;;;;;;;;;;;;;;;;1018942;29;1386;-18
2021/10/11 01:47:37;;;;;;;;;;;;;;;;;;1015539;29;1030;-18
2021/10/11 01:48:08;;;;;;;;;;;;;;;;;;1015405;29;1160;-18
2021/10/11 01:48:39;;;;;;;;;;;;;;;;;;1018571;29;1206;-18
2021/10/11 01:49:10;;;;;;;;;;;;;;;;;;1010762;29;960;-18
2021/10/11 01:49:40;;;;;;;;;;;;;;;;;;1010484;29;1634;-18
2021/10/11 01:50:10;;;;;;;;;;;;;;;;;;1010654;29;962;-18
2021/10/11 01:50:41;;;;;;;;;;;;;;;;;;1006798;29;1723;-18
2021/10/11 01:51:12;;;;;;;;;;;;;;;;;;1010349;29;1414;-18
2021/10/11 01:51:43;;;;;;;;;;;;;;;;;;1010788;29;1010;-18
2021/10/11 01:52:14;;;;;;;;;;;;;;;;;;1010455;29;1453;-18
2021/10/11 01:52:44;;;;;;;;;;;;;;;;;;1011056;29;950;-18
2021/10/11 01:53:14;;;;;;;;;;;;;;;;;;1014429;29;1657;-18
2021/10/11 01:53:45;;;;;;;;;;;;;;;;;;1014807;29;1117;-18
2021/10/11 01:54:15;;;;;;;;;;;;;;;;;;1006831;29;1101;-18
2021/10/11 01:54:46;;;;;;;;;;;;;;;;;;1002751;29;1288;-18
2021/10/11 01:55:17;;;;;;;;;;;;;;;;;;1003038;29;1205;-18
2021/10/11 01:55:47;;;;;;;;;;;;;;;;;;1007147;29;1052;-18
2021/10/11 01:56:18;;;;;;;;;;;;;;;;;;1014089;29;1362;-18
2021/10/11 01:56:48;;;;;;;;;;;;;;;;;;1014884;29;1020;-18
2021/10/11 01:57:19;;;;;;;;;;;;;;;;;;1010703;29;1053;-18
2021/10/11 01:57:50;;;;;;;;;;;;;;;;;;1002726;29;967;-19
2021/10/11 01:58:20;;;;;;;;;;;;;;;;;;1003237;29;1193;-18
2021/10/11 01:58:50;;;;;;;;;;;;;;;;;;1003072;29;935;-19
2021/10/11 01:59:21;;;;;;;;;;;;;;;;;;1007199;29;846;-18
2021/10/11 01:59:51;;;;;;;;;;;;;;;;;;1015402;29;1386;-18
2021/10/11 02:00:21;;;;;;;;;;;;;;;;;;1015455;29;1023;-18
2021/10/11 02:00:52;;;;;;;;;;;;;;;;;;1015308;29;935;-18
2021/10/11 02:01:22;;;;;;;;;;;;;;;;;;1015641;29;962;-18
2021/10/11 02:01:52;;;;;;;;;;;;;;;;;;1015139;29;1155;-18
2021/10/11 02:02:23;;;;;;;;;;;;;;;;;;1015720;29;854;-18
2021/10/11 02:02:53;;;;;;;;;;;;;;;;;;1014174;29;1368;-18
2021/10/11 02:03:24;;;;;;;;;;;;;;;;;;1014913;29;1176;-18
2021/10/11 02:03:54;;;;;;;;;;;;;;;;;;1014498;29;1579;-18
2021/10/11 02:04:25;;;;;;;;;;;;;;;;;;1022596;28;1528;-18
2021/10/11 02:04:55;;;;;;;;;;;;;;;;;;1018448;29;1907;-18
2021/10/11 02:05:26;;;;;;;;;;;;;;;;;;1022410;28;1284;-18
2021/10/11 02:05:57;;;;;;;;;;;;;;;;;;1018340;29;1049;-18
2021/10/11 02:06:27;;;;;;;;;;;;;;;;;;1006880;29;1196;-18
2021/10/11 02:06:57;;;;;;;;;;;;;;;;;;1006666;29;1177;-18
2021/10/11 02:07:27;;;;;;;;;;;;;;;;;;1007084;29;1300;-18
2021/10/11 02:07:58;;;;;;;;;;;;;;;;;;1015177;29;874;-18
2021/10/11 02:08:29;;;;;;;;;;;;;;;;;;1015646;29;947;-18
2021/10/11 02:08:59;;;;;;;;;;;;;;;;;;1014480;29;1045;-18
2021/10/11 02:09:30;;;;;;;;;;;;;;;;;;1018064;29;1442;-18
2021/10/11 02:10:01;;;;;;;;;;;;;;;;;;1018518;28;1276;-18
2021/10/11 02:10:31;;;;;;;;;;;;;;;;;;1018588;28;921;-18
2021/10/11 02:11:01;;;;;;;;;;;;;;;;;;1018423;29;922;-18
2021/10/11 02:11:32;;;;;;;;;;;;;;;;;;1015565;29;1237;-18
2021/10/11 02:12:02;;;;;;;;;;;;;;;;;;1014955;29;1340;-18
2021/10/11 02:12:32;;;;;;;;;;;;;;;;;;1015236;29;1001;-18
2021/10/11 02:13:04;;;;;;;;;;;;;;;;;;1015345;29;1582;-18
2021/10/11 02:13:34;;;;;;;;;;;;;;;;;;1014757;29;1459;-18
2021/10/11 02:14:05;;;;;;;;;;;;;;;;;;1010234;29;1421;-18
2021/10/11 02:14:35;;;;;;;;;;;;;;;;;;1010715;29;1332;-18
2021/10/11 02:15:06;;;;;;;;;;;;;;;;;;1010590;29;1272;-18
2021/10/11 02:15:36;;;;;;;;;;;;;;;;;;1010929;29;843;-18
2021/10/11 02:16:07;;;;;;;;;;;;;;;;;;1014620;29;1287;-18
2021/10/11 02:16:37;;;;;;;;;;;;;;;;;;1018510;29;1017;-19
2021/10/11 02:17:08;;;;;;;;;;;;;;;;;;1018261;29;1583;-18
2021/10/11 02:17:38;;;;;;;;;;;;;;;;;;1018512;29;1279;-18
2021/10/11 02:18:10;;;;;;;;;;;;;;;;;;1010321;29;1017;-18
2021/10/11 02:18:40;;;;;;;;;;;;;;;;;;1010356;29;1448;-18
2021/10/11 02:19:12;;;;;;;;;;;;;;;;;;1010455;29;1288;-19
2021/10/11 02:19:42;;;;;;;;;;;;;;;;;;1010785;29;1365;-18
2021/10/11 02:20:13;;;;;;;;;;;;;;;;;;1018329;29;1126;-18
2021/10/11 02:20:44;;;;;;;;;;;;;;;;;;1014464;29;2674;-18
2021/10/11 02:21:15;;;;;;;;;;;;;;;;;;1014426;29;1178;-18
2021/10/11 02:21:45;;;;;;;;;;;;;;;;;;1014502;29;1014;-18
2021/10/11 02:22:16;;;;;;;;;;;;;;;;;;1006866;29;930;-18
2021/10/11 02:22:47;;;;;;;;;;;;;;;;;;1010677;29;1019;-18
2021/10/11 02:23:18;;;;;;;;;;;;;;;;;;1010336;29;1216;-18
2021/10/11 02:23:48;;;;;;;;;;;;;;;;;;1010283;29;1401;-18
2021/10/11 02:24:18;;;;;;;;;;;;;;;;;;1006536;29;1199;-18
2021/10/11 02:24:49;;;;;;;;;;;;;;;;;;999208;29;1915;-18
2021/10/11 02:25:19;;;;;;;;;;;;;;;;;;1006546;29;1142;-18
2021/10/11 02:25:54;;;;;;;;;;;;;;;;;;1011274;29;848;-17
2021/10/11 02:26:24;;;;;;;;;;;;;;;;;;1014454;29;1320;-18
2021/10/11 02:26:54;;;;;;;;;;;;;;;;;;1014248;29;1076;-18
2021/10/11 02:27:25;;;;;;;;;;;;;;;;;;1014702;29;1213;-17
2021/10/11 02:27:55;;;;;;;;;;;;;;;;;;1014207;29;928;-17
2021/10/11 02:28:25;;;;;;;;;;;;;;;;;;1015206;29;1299;-18
2021/10/11 02:28:57;;;;;;;;;;;;;;;;;;1015219;29;854;-17
2021/10/11 02:29:31;;;;;;;;;;;;;;;;;;1015371;29;938;-18
2021/10/11 02:30:01;;;;;;;;;;;;;;;;;;1015288;29;1015;-18
2021/10/11 02:30:31;;;;;;;;;;;;;;;;;;1015084;29;914;-18
2021/10/11 02:31:02;;;;;;;;;;;;;;;;;;1015304;29;996;-18
2021/10/11 02:31:32;;;;;;;;;;;;;;;;;;1018362;29;1105;-17
2021/10/11 02:32:03;;;;;;;;;;;;;;;;;;1018297;29;1062;-18
2021/10/11 02:32:34;;;;;;;;;;;;;;;;;;1018654;29;955;-18
2021/10/11 02:33:04;;;;;;;;;;;;;;;;;;1014162;29;1319;-18
2021/10/11 02:33:34;;;;;;;;;;;;;;;;;;1010454;29;1217;-18
2021/10/11 02:34:06;;;;;;;;;;;;;;;;;;1010587;29;971;-18
2021/10/11 02:34:36;;;;;;;;;;;;;;;;;;1010311;29;1193;-18
2021/10/11 02:35:07;;;;;;;;;;;;;;;;;;1014636;29;1016;-18
2021/10/11 02:35:39;;;;;;;;;;;;;;;;;;1010247;29;1540;-18
2021/10/11 02:36:09;;;;;;;;;;;;;;;;;;1002439;29;1307;-18
2021/10/11 02:36:40;;;;;;;;;;;;;;;;;;1002796;29;1070;-18
2021/10/11 02:37:10;;;;;;;;;;;;;;;;;;1002471;29;1446;-18
2021/10/11 02:37:43;;;;;;;;;;;;;;;;;;1002774;29;1150;-18
2021/10/11 02:38:13;;;;;;;;;;;;;;;;;;1003118;29;1304;-18
2021/10/11 02:38:44;;;;;;;;;;;;;;;;;;1010495;29;3482;-18
2021/10/11 02:39:14;;;;;;;;;;;;;;;;;;1010228;29;1567;-19
2021/10/11 02:39:45;;;;;;;;;;;;;;;;;;1006677;29;1529;-18
2021/10/11 02:40:15;;;;;;;;;;;;;;;;;;1006674;29;1533;-18
2021/10/11 02:40:46;;;;;;;;;;;;;;;;;;1007050;29;1236;-18
2021/10/11 02:41:16;;;;;;;;;;;;;;;;;;1006010;29;1552;-18
2021/10/11 02:41:47;;;;;;;;;;;;;;;;;;1014796;29;1153;-18
2021/10/11 02:42:17;;;;;;;;;;;;;;;;;;1014335;29;1400;-18
2021/10/11 02:42:48;;;;;;;;;;;;;;;;;;1014707;29;1294;-18
2021/10/11 02:43:19;;;;;;;;;;;;;;;;;;1014724;29;992;-18
2021/10/11 02:43:49;;;;;;;;;;;;;;;;;;1010513;29;958;-18
2021/10/11 02:44:20;;;;;;;;;;;;;;;;;;1010969;29;980;-18
2021/10/11 02:44:50;;;;;;;;;;;;;;;;;;1010759;29;1915;-18
2021/10/11 02:45:21;;;;;;;;;;;;;;;;;;1010663;29;952;-18
2021/10/11 02:45:52;;;;;;;;;;;;;;;;;;1010735;29;1145;-17
2021/10/11 02:46:23;;;;;;;;;;;;;;;;;;1010525;29;1396;-18
2021/10/11 02:46:53;;;;;;;;;;;;;;;;;;1010384;29;1283;-17
2021/10/11 02:47:24;;;;;;;;;;;;;;;;;;1011044;29;925;-17
2021/10/11 02:47:54;;;;;;;;;;;;;;;;;;1014993;29;1213;-18
2021/10/11 02:48:24;;;;;;;;;;;;;;;;;;1015412;29;1332;-18
2021/10/11 02:48:55;;;;;;;;;;;;;;;;;;1015233;29;930;-18
2021/10/11 02:49:25;;;;;;;;;;;;;;;;;;1015326;29;1087;-18
2021/10/11 02:49:55;;;;;;;;;;;;;;;;;;1015319;29;1465;-18
2021/10/11 02:50:26;;;;;;;;;;;;;;;;;;1015316;29;1288;-18
2021/10/11 02:50:56;;;;;;;;;;;;;;;;;;1015281;29;886;-18
2021/10/11 02:51:26;;;;;;;;;;;;;;;;;;1015468;29;1134;-17
2021/10/11 02:51:57;;;;;;;;;;;;;;;;;;1013594;29;1428;-17
2021/10/11 02:52:30;;;;;;;;;;;;;;;;;;1013840;29;1231;-17
2021/10/11 02:53:00;;;;;;;;;;;;;;;;;;1006149;29;1506;-17
2021/10/11 02:53:31;;;;;;;;;;;;;;;;;;1006267;29;1303;-17
2021/10/11 02:54:01;;;;;;;;;;;;;;;;;;1006850;29;1106;-17
2021/10/11 02:54:31;;;;;;;;;;;;;;;;;;1006622;29;1178;-17
2021/10/11 02:55:03;;;;;;;;;;;;;;;;;;1015194;29;1227;-17
2021/10/11 02:55:34;;;;;;;;;;;;;;;;;;1015298;29;1688;-17
2021/10/11 02:56:04;;;;;;;;;;;;;;;;;;1018774;29;1422;-17
2021/10/11 02:56:34;;;;;;;;;;;;;;;;;;1019012;29;1592;-17
2021/10/11 02:57:05;;;;;;;;;;;;;;;;;;1018652;29;1057;-17
2021/10/11 02:57:36;;;;;;;;;;;;;;;;;;1018551;29;934;-17
2021/10/11 02:58:06;;;;;;;;;;;;;;;;;;1006564;29;1072;-17
2021/10/11 02:58:37;;;;;;;;;;;;;;;;;;999249;29;1336;-18
2021/10/11 02:59:08;;;;;;;;;;;;;;;;;;998986;29;1057;-19
2021/10/11 02:59:38;;;;;;;;;;;;;;;;;;998720;29;1515;-19
2021/10/11 03:00:12;;;;;;;;;;;;;;;;;;1006800;29;1228;-18
2021/10/11 03:00:42;;;;;;;;;;;;;;;;;;1015136;29;1270;-18
2021/10/11 03:01:14;;;;;;;;;;;;;;;;;;1017710;29;1527;-18
2021/10/11 03:01:44;;;;;;;;;;;;;;;;;;1018499;29;1378;-18
2021/10/11 03:02:15;;;;;;;;;;;;;;;;;;1018103;29;1083;-18
2021/10/11 03:02:45;;;;;;;;;;;;;;;;;;1014658;29;1129;-18
2021/10/11 03:03:15;;;;;;;;;;;;;;;;;;1014410;29;921;-18
2021/10/11 03:03:46;;;;;;;;;;;;;;;;;;1014091;29;1635;-19
2021/10/11 03:04:16;;;;;;;;;;;;;;;;;;1014306;29;1128;-18
2021/10/11 03:04:47;;;;;;;;;;;;;;;;;;1015276;29;1451;-19
2021/10/11 03:05:18;;;;;;;;;;;;;;;;;;1014962;29;2088;-18
2021/10/11 03:05:48;;;;;;;;;;;;;;;;;;1015013;29;1340;-18
2021/10/11 03:06:18;;;;;;;;;;;;;;;;;;1015147;29;1316;-18
2021/10/11 03:06:49;;;;;;;;;;;;;;;;;;1015549;29;790;-18
2021/10/11 03:07:19;;;;;;;;;;;;;;;;;;1014503;29;1219;-19
2021/10/11 03:07:50;;;;;;;;;;;;;;;;;;1014497;29;943;-18
2021/10/11 03:08:20;;;;;;;;;;;;;;;;;;1014680;29;1077;-18
2021/10/11 03:08:51;;;;;;;;;;;;;;;;;;1014086;29;1753;-18
2021/10/11 03:09:21;;;;;;;;;;;;;;;;;;1010514;29;1440;-18
2021/10/11 03:09:52;;;;;;;;;;;;;;;;;;1006614;29;900;-18
2021/10/11 03:10:22;;;;;;;;;;;;;;;;;;1006628;29;1768;-18
2021/10/11 03:10:53;;;;;;;;;;;;;;;;;;1006835;29;1232;-18
2021/10/11 03:11:23;;;;;;;;;;;;;;;;;;1010838;29;1056;-18
2021/10/11 03:11:53;;;;;;;;;;;;;;;;;;1010543;29;875;-18
2021/10/11 03:12:24;;;;;;;;;;;;;;;;;;1015360;29;1096;-18
2021/10/11 03:12:54;;;;;;;;;;;;;;;;;;1015001;29;1495;-18
2021/10/11 03:13:25;;;;;;;;;;;;;;;;;;1015259;29;1118;-18
2021/10/11 03:13:55;;;;;;;;;;;;;;;;;;1010592;29;1190;-18
2021/10/11 03:14:26;;;;;;;;;;;;;;;;;;1010145;29;1422;-19
2021/10/11 03:14:57;;;;;;;;;;;;;;;;;;1006583;29;1039;-18
2021/10/11 03:15:27;;;;;;;;;;;;;;;;;;1006541;29;1194;-18
2021/10/11 03:15:58;;;;;;;;;;;;;;;;;;1010230;29;1144;-18
2021/10/11 03:16:29;;;;;;;;;;;;;;;;;;1010790;29;1046;-18
2021/10/11 03:16:59;;;;;;;;;;;;;;;;;;1014011;29;2454;-18
2021/10/11 03:17:29;;;;;;;;;;;;;;;;;;1014200;29;1028;-18
2021/10/11 03:17:59;;;;;;;;;;;;;;;;;;1014343;29;1294;-19
2021/10/11 03:18:30;;;;;;;;;;;;;;;;;;1010503;29;993;-18
2021/10/11 03:19:00;;;;;;;;;;;;;;;;;;1010654;29;1210;-18
2021/10/11 03:19:31;;;;;;;;;;;;;;;;;;1010400;29;1605;-18
2021/10/11 03:20:02;;;;;;;;;;;;;;;;;;1010729;29;1000;-19
2021/10/11 03:20:32;;;;;;;;;;;;;;;;;;1015268;29;922;-18
2021/10/11 03:21:03;;;;;;;;;;;;;;;;;;1014536;29;1286;-18
2021/10/11 03:21:33;;;;;;;;;;;;;;;;;;1015191;29;1295;-18
2021/10/11 03:22:03;;;;;;;;;;;;;;;;;;1015147;29;1198;-18
2021/10/11 03:22:34;;;;;;;;;;;;;;;;;;1015066;29;1145;-18
2021/10/11 03:23:04;;;;;;;;;;;;;;;;;;1015392;29;966;-19
2021/10/11 03:23:35;;;;;;;;;;;;;;;;;;1015223;29;922;-18
2021/10/11 03:24:05;;;;;;;;;;;;;;;;;;1015492;29;953;-18
2021/10/11 03:24:36;;;;;;;;;;;;;;;;;;1014234;29;1452;-19
2021/10/11 03:25:07;;;;;;;;;;;;;;;;;;1014246;29;1978;-18
2021/10/11 03:25:38;;;;;;;;;;;;;;;;;;1006695;29;990;-18
2021/10/11 03:26:08;;;;;;;;;;;;;;;;;;1006690;29;1316;-18
2021/10/11 03:26:39;;;;;;;;;;;;;;;;;;1010467;29;965;-18
2021/10/11 03:27:09;;;;;;;;;;;;;;;;;;1010572;29;1261;-18
2021/10/11 03:27:39;;;;;;;;;;;;;;;;;;1014136;29;1477;-18
2021/10/11 03:28:10;;;;;;;;;;;;;;;;;;1014520;29;1113;-18
2021/10/11 03:28:40;;;;;;;;;;;;;;;;;;1015242;29;1129;-18
2021/10/11 03:29:11;;;;;;;;;;;;;;;;;;1015111;29;1118;-18
2021/10/11 03:29:41;;;;;;;;;;;;;;;;;;1015357;28;893;-18
2021/10/11 03:30:12;;;;;;;;;;;;;;;;;;1018979;28;1021;-18
2021/10/11 03:30:42;;;;;;;;;;;;;;;;;;1015306;29;1102;-18
2021/10/11 03:31:12;;;;;;;;;;;;;;;;;;1014946;29;1733;-19
2021/10/11 03:31:43;;;;;;;;;;;;;;;;;;1015292;29;1470;-18
2021/10/11 03:32:14;;;;;;;;;;;;;;;;;;1015314;29;1454;-18
2021/10/11 03:32:45;;;;;;;;;;;;;;;;;;1015080;29;1358;-18
2021/10/11 03:33:15;;;;;;;;;;;;;;;;;;1007220;29;1102;-18